createdAt,value
2022-09-18T00:31:09.310Z,9.18
2022-09-18T00:32:07.817Z,9.26
2022-09-18T00:33:07.798Z,9.31
2022-09-18T00:34:07.859Z,9.32
2022-09-18T00:35:07.778Z,9.32
2022-09-18T00:36:07.732Z,9.36
2022-09-18T00:37:07.712Z,9.37
2022-09-18T00:38:07.704Z,9.36
2022-09-18T00:39:07.693Z,9.36
2022-09-18T00:40:07.772Z,9.34
2022-09-18T00:41:07.663Z,9.36
2022-09-18T00:42:07.653Z,9.32
2022-09-18T00:43:07.633Z,9.34
2022-09-18T00:44:07.639Z,9.29
2022-09-18T00:45:07.624Z,9.28
2022-09-18T00:46:07.658Z,9.26
2022-09-18T00:47:07.594Z,9.26
2022-09-18T00:48:07.569Z,9.23
2022-09-18T00:49:07.555Z,9.21
2022-09-18T00:50:10.585Z,9.18
2022-09-18T00:51:10.579Z,9.16
2022-09-18T00:52:07.505Z,9.13
2022-09-18T00:53:07.496Z,9.11
2022-09-18T00:54:07.476Z,9.11
2022-09-18T00:55:07.596Z,9.08
2022-09-18T00:56:07.567Z,9.08
2022-09-18T00:57:07.588Z,9.06
2022-09-18T00:58:07.486Z,9.04
2022-09-18T00:59:07.478Z,9.03
2022-09-18T01:00:07.555Z,9.00
2022-09-18T01:01:07.646Z,8.95
2022-09-18T01:02:07.486Z,8.95
2022-09-18T01:03:07.420Z,8.97
2022-09-18T01:04:07.489Z,8.94
2022-09-18T01:05:07.360Z,8.94
2022-09-18T01:06:07.415Z,8.92
2022-09-18T01:07:07.383Z,8.91
2022-09-18T01:08:07.361Z,8.92
2022-09-18T01:09:07.362Z,8.89
2022-09-18T01:10:10.420Z,8.88
2022-09-18T01:11:10.522Z,8.91
2022-09-18T01:12:07.349Z,8.87
2022-09-18T01:13:07.292Z,8.87
2022-09-18T01:14:07.363Z,8.85
2022-09-18T01:15:07.293Z,8.84
2022-09-18T01:16:07.347Z,8.81
2022-09-18T01:17:07.253Z,8.81
2022-09-18T01:18:07.441Z,8.82
2022-09-18T01:19:07.205Z,8.81
2022-09-18T01:20:07.170Z,8.81
2022-09-18T01:21:07.221Z,8.82
2022-09-18T01:22:07.167Z,8.81
2022-09-18T01:23:07.154Z,8.78
2022-09-18T01:24:07.163Z,8.74
2022-09-18T01:25:07.145Z,8.74
2022-09-18T01:26:07.106Z,8.74
2022-09-18T01:27:07.120Z,8.73
2022-09-18T01:28:07.125Z,8.70
2022-09-18T01:29:07.045Z,8.69
2022-09-18T01:30:10.086Z,8.67
2022-09-18T01:31:26.288Z,8.69
2022-09-18T01:32:14.806Z,8.66
2022-09-18T01:33:08.002Z,8.69
2022-09-18T01:34:07.058Z,8.70
2022-09-18T01:35:14.237Z,8.70
2022-09-18T01:36:07.980Z,8.70
2022-09-18T01:37:07.011Z,8.70
2022-09-18T01:38:06.895Z,8.71
2022-09-18T01:39:07.000Z,8.71
2022-09-18T01:40:06.967Z,8.71
2022-09-18T01:41:06.899Z,8.71
2022-09-18T01:42:06.953Z,8.73
2022-09-18T01:43:06.978Z,8.74
2022-09-18T01:44:06.942Z,8.74
2022-09-18T01:45:06.892Z,8.73
2022-09-18T01:46:06.917Z,8.71
2022-09-18T01:47:06.818Z,8.71
2022-09-18T01:48:06.785Z,8.70
2022-09-18T01:49:06.932Z,8.69
2022-09-18T01:50:09.823Z,8.67
2022-09-18T01:51:09.787Z,8.69
2022-09-18T01:52:06.810Z,8.64
2022-09-18T01:53:06.731Z,8.60
2022-09-18T01:54:07.777Z,8.58
2022-09-18T01:55:06.765Z,8.56
2022-09-18T01:56:06.691Z,8.53
2022-09-18T01:57:06.775Z,8.53
2022-09-18T01:58:06.723Z,8.51
2022-09-18T01:59:06.655Z,8.51
2022-09-18T02:00:06.743Z,8.49
2022-09-18T02:01:06.662Z,8.48
2022-09-18T02:02:06.881Z,8.48
2022-09-18T02:03:06.647Z,8.48
2022-09-18T02:04:06.626Z,8.49
2022-09-18T02:05:06.597Z,8.48
2022-09-18T02:06:06.584Z,8.46
2022-09-18T02:07:06.490Z,8.46
2022-09-18T02:08:06.558Z,8.49
2022-09-18T02:09:06.513Z,8.49
2022-09-18T02:10:09.499Z,8.51
2022-09-18T02:11:09.509Z,8.53
2022-09-18T02:12:06.527Z,8.55
2022-09-18T02:13:06.479Z,8.58
2022-09-18T02:14:06.459Z,8.60
2022-09-18T02:15:06.429Z,8.60
2022-09-18T02:16:06.716Z,8.60
2022-09-18T02:17:06.424Z,8.60
2022-09-18T02:18:06.399Z,8.61
2022-09-18T02:19:06.413Z,8.63
2022-09-18T02:20:06.381Z,8.64
2022-09-18T02:21:06.361Z,8.66
2022-09-18T02:22:06.391Z,8.66
2022-09-18T02:23:06.308Z,8.69
2022-09-18T02:24:06.283Z,8.70
2022-09-18T02:25:06.274Z,8.70
2022-09-18T02:26:06.262Z,8.70
2022-09-18T02:27:06.311Z,8.69
2022-09-18T02:28:06.325Z,8.64
2022-09-18T02:29:06.292Z,8.63
2022-09-18T02:30:09.192Z,8.60
2022-09-18T02:31:09.271Z,8.58
2022-09-18T02:32:06.211Z,8.52
2022-09-18T02:33:06.232Z,8.49
2022-09-18T02:34:06.243Z,8.45
2022-09-18T02:35:06.140Z,8.44
2022-09-18T02:36:06.175Z,8.38
2022-09-18T02:37:06.146Z,8.37
2022-09-18T02:38:06.096Z,8.34
2022-09-18T02:39:06.093Z,8.33
2022-09-18T02:40:06.182Z,8.30
2022-09-18T02:41:06.065Z,8.28
2022-09-18T02:42:06.104Z,8.27
2022-09-18T02:43:06.077Z,8.28
2022-09-18T02:44:06.046Z,8.26
2022-09-18T02:45:06.079Z,8.23
2022-09-18T02:46:06.109Z,8.23
2022-09-18T02:47:06.069Z,8.19
2022-09-18T02:48:06.016Z,8.19
2022-09-18T02:49:06.008Z,8.20
2022-09-18T02:50:08.974Z,8.20
2022-09-18T02:51:08.931Z,8.20
2022-09-18T02:52:05.918Z,8.20
2022-09-18T02:53:05.911Z,8.23
2022-09-18T02:54:05.909Z,8.27
2022-09-18T02:55:05.900Z,8.28
2022-09-18T02:56:05.850Z,8.31
2022-09-18T02:57:06.979Z,8.33
2022-09-18T02:58:05.860Z,8.34
2022-09-18T02:59:05.848Z,8.36
2022-09-18T03:00:05.832Z,8.36
2022-09-18T03:01:05.870Z,8.33
2022-09-18T03:02:05.932Z,8.33
2022-09-18T03:03:05.828Z,8.30
2022-09-18T03:04:05.741Z,8.28
2022-09-18T03:05:05.789Z,8.26
2022-09-18T03:06:05.742Z,8.24
2022-09-18T03:07:05.735Z,8.19
2022-09-18T03:08:05.694Z,8.18
2022-09-18T03:09:05.659Z,8.18
2022-09-18T03:10:08.772Z,8.15
2022-09-18T03:11:08.743Z,8.16
2022-09-18T03:12:05.694Z,8.12
2022-09-18T03:13:05.695Z,8.10
2022-09-18T03:14:05.614Z,8.08
2022-09-18T03:15:05.673Z,8.05
2022-09-18T03:16:05.719Z,8.03
2022-09-18T03:17:05.604Z,8.01
2022-09-18T03:18:05.816Z,8.00
2022-09-18T03:19:05.675Z,7.98
2022-09-18T03:20:05.555Z,7.95
2022-09-18T03:21:05.576Z,7.98
2022-09-18T03:22:05.590Z,8.00
2022-09-18T03:23:05.514Z,8.00
2022-09-18T03:24:05.640Z,8.00
2022-09-18T03:25:05.479Z,8.00
2022-09-18T03:26:05.497Z,8.01
2022-09-18T03:27:05.407Z,8.06
2022-09-18T03:28:05.387Z,8.09
2022-09-18T03:29:05.396Z,8.13
2022-09-18T03:30:08.408Z,8.16
2022-09-18T03:31:08.497Z,8.24
2022-09-18T03:32:05.359Z,8.26
2022-09-18T03:33:05.498Z,8.27
2022-09-18T03:34:05.597Z,8.27
2022-09-18T03:35:05.467Z,8.30
2022-09-18T03:36:05.405Z,8.31
2022-09-18T03:37:05.489Z,8.33
2022-09-18T03:38:05.341Z,8.33
2022-09-18T03:39:05.353Z,8.33
2022-09-18T03:40:05.393Z,8.33
2022-09-18T03:41:05.268Z,8.30
2022-09-18T03:42:05.278Z,8.30
2022-09-18T03:43:05.234Z,8.27
2022-09-18T03:44:05.280Z,8.26
2022-09-18T03:45:05.183Z,8.23
2022-09-18T03:46:05.259Z,8.20
2022-09-18T03:47:05.181Z,8.16
2022-09-18T03:48:05.165Z,8.12
2022-09-18T03:49:05.194Z,8.10
2022-09-18T03:50:08.124Z,8.05
2022-09-18T03:51:08.254Z,8.03
2022-09-18T03:52:05.093Z,7.98
2022-09-18T03:53:05.194Z,7.95
2022-09-18T03:54:05.075Z,7.91
2022-09-18T03:55:05.133Z,7.90
2022-09-18T03:56:05.067Z,7.87
2022-09-18T03:57:05.299Z,7.87
2022-09-18T03:58:05.057Z,7.82
2022-09-18T03:59:05.057Z,7.82
2022-09-18T04:00:05.084Z,7.79
2022-09-18T04:01:05.093Z,7.77
2022-09-18T04:02:05.179Z,7.73
2022-09-18T04:03:05.130Z,7.72
2022-09-18T04:04:05.051Z,7.70
2022-09-18T04:05:05.007Z,7.63
2022-09-18T04:06:04.981Z,7.66
2022-09-18T04:07:04.928Z,7.69
2022-09-18T04:08:04.942Z,7.72
2022-09-18T04:09:05.017Z,7.67
2022-09-18T04:10:07.898Z,7.73
2022-09-18T04:11:07.872Z,7.75
2022-09-18T04:12:04.942Z,7.72
2022-09-18T04:13:04.871Z,7.73
2022-09-18T04:14:04.841Z,7.73
2022-09-18T04:15:04.907Z,7.70
2022-09-18T04:16:04.887Z,7.70
2022-09-18T04:17:04.814Z,7.72
2022-09-18T04:18:04.853Z,7.72
2022-09-18T04:19:04.724Z,7.72
2022-09-18T04:20:04.684Z,7.75
2022-09-18T04:21:04.671Z,7.79
2022-09-18T04:22:04.657Z,7.80
2022-09-18T04:23:04.632Z,7.82
2022-09-18T04:24:04.644Z,7.85
2022-09-18T04:25:04.611Z,7.88
2022-09-18T04:26:04.597Z,7.91
2022-09-18T04:27:04.573Z,7.95
2022-09-18T04:28:04.554Z,7.98
2022-09-18T04:29:04.653Z,8.08
2022-09-18T04:30:07.535Z,8.13
2022-09-18T04:31:07.578Z,8.19
2022-09-18T04:32:04.493Z,8.19
2022-09-18T04:33:04.484Z,8.23
2022-09-18T04:34:04.465Z,8.24
2022-09-18T04:35:04.525Z,8.26
2022-09-18T04:36:04.476Z,8.27
2022-09-18T04:37:08.171Z,8.24
2022-09-18T04:38:05.445Z,8.24
2022-09-18T04:39:04.411Z,8.23
2022-09-18T04:40:04.426Z,8.23
2022-09-18T04:41:04.406Z,8.20
2022-09-18T04:42:04.357Z,8.20
2022-09-18T04:43:04.407Z,8.20
2022-09-18T04:44:04.345Z,8.19
2022-09-18T04:45:04.318Z,8.19
2022-09-18T04:46:04.308Z,8.19
2022-09-18T04:47:04.398Z,8.19
2022-09-18T04:48:04.308Z,8.19
2022-09-18T04:49:04.269Z,8.19
2022-09-18T04:50:07.271Z,8.20
2022-09-18T04:51:07.268Z,8.26
2022-09-18T04:52:04.219Z,8.27
2022-09-18T04:53:04.257Z,8.28
2022-09-18T04:54:04.253Z,8.31
2022-09-18T04:55:04.198Z,8.34
2022-09-18T04:56:04.181Z,8.36
2022-09-18T04:57:04.151Z,8.38
2022-09-18T04:58:04.162Z,8.37
2022-09-18T04:59:04.172Z,8.37
2022-09-18T05:00:04.142Z,8.37
2022-09-18T05:01:04.172Z,8.37
2022-09-18T05:02:04.154Z,8.38
2022-09-18T05:03:04.086Z,8.38
2022-09-18T05:04:04.113Z,8.41
2022-09-18T05:05:04.052Z,8.41
2022-09-18T05:06:04.058Z,8.42
2022-09-18T05:07:04.054Z,8.42
2022-09-18T05:08:04.014Z,8.45
2022-09-18T05:09:36.501Z,8.48
2022-09-18T05:10:07.250Z,8.48
2022-09-18T05:11:07.075Z,8.49
2022-09-18T05:12:04.060Z,8.49
2022-09-18T05:13:04.087Z,8.48
2022-09-18T05:14:04.052Z,8.46
2022-09-18T05:15:04.082Z,8.46
2022-09-18T05:16:04.211Z,8.46
2022-09-18T05:17:04.128Z,8.45
2022-09-18T05:18:07.758Z,8.45
2022-09-18T05:20:13.721Z,8.48
2022-09-18T05:21:13.684Z,8.45
2022-09-18T05:22:13.667Z,8.46
2022-09-18T05:23:13.645Z,8.49
2022-09-18T05:24:13.634Z,8.48
2022-09-18T05:25:13.648Z,8.51
2022-09-18T05:26:13.663Z,8.52
2022-09-18T05:27:13.595Z,8.53
2022-09-18T05:28:13.594Z,8.56
2022-09-18T05:29:13.566Z,8.58
2022-09-18T05:30:13.557Z,8.61
2022-09-18T05:31:13.586Z,8.66
2022-09-18T05:32:13.556Z,8.67
2022-09-18T05:33:13.519Z,8.66
2022-09-18T05:34:13.506Z,8.63
2022-09-18T05:35:13.509Z,8.58
2022-09-18T05:36:13.477Z,8.55
2022-09-18T05:37:13.462Z,8.53
2022-09-18T05:38:13.458Z,8.51
2022-09-18T05:39:17.704Z,8.51
2022-09-18T05:40:16.539Z,8.51
2022-09-18T05:41:13.408Z,8.46
2022-09-18T05:42:13.400Z,8.46
2022-09-18T05:43:13.401Z,8.48
2022-09-18T05:44:13.370Z,8.48
2022-09-18T05:45:13.350Z,8.48
2022-09-18T05:46:13.372Z,8.51
2022-09-18T05:47:13.321Z,8.52
2022-09-18T05:48:13.361Z,8.56
2022-09-18T05:49:13.303Z,8.58
2022-09-18T05:50:13.292Z,8.63
2022-09-18T05:51:13.274Z,8.67
2022-09-18T05:52:13.262Z,8.71
2022-09-18T05:53:13.252Z,8.74
2022-09-18T05:54:13.301Z,8.82
2022-09-18T05:55:13.225Z,8.82
2022-09-18T05:56:13.211Z,8.82
2022-09-18T05:57:13.193Z,8.81
2022-09-18T05:58:13.213Z,8.78
2022-09-18T05:59:16.222Z,8.74
2022-09-18T06:00:16.202Z,8.74
2022-09-18T06:01:13.134Z,8.70
2022-09-18T06:02:13.167Z,8.70
2022-09-18T06:03:13.269Z,8.70
2022-09-18T06:04:13.095Z,8.67
2022-09-18T06:05:13.143Z,8.67
2022-09-18T06:06:13.075Z,8.69
2022-09-18T06:07:13.068Z,8.74
2022-09-18T06:08:13.054Z,8.82
2022-09-18T06:09:13.026Z,8.89
2022-09-18T06:10:13.016Z,8.95
2022-09-18T06:11:13.081Z,9.04
2022-09-18T06:12:12.987Z,9.10
2022-09-18T06:13:12.982Z,9.14
2022-09-18T06:14:12.967Z,9.18
2022-09-18T06:15:12.992Z,9.21
2022-09-18T06:16:12.992Z,9.22
2022-09-18T06:17:12.948Z,9.22
2022-09-18T06:18:12.909Z,9.22
2022-09-18T06:19:15.892Z,9.23
2022-09-18T06:20:15.898Z,9.29
2022-09-18T06:21:13.029Z,9.29
2022-09-18T06:22:12.859Z,9.32
2022-09-18T06:23:12.850Z,9.31
2022-09-18T06:24:12.830Z,9.32
2022-09-18T06:25:12.810Z,9.36
2022-09-18T06:26:15.145Z,9.39
2022-09-18T06:27:12.851Z,9.43
2022-09-18T06:28:12.771Z,9.46
2022-09-18T06:29:12.759Z,9.50
2022-09-18T06:30:12.751Z,9.51
2022-09-18T06:31:12.787Z,9.51
2022-09-18T06:32:12.722Z,9.55
2022-09-18T06:33:12.772Z,9.55
2022-09-18T06:34:12.693Z,9.55
2022-09-18T06:35:12.681Z,9.58
2022-09-18T06:36:12.674Z,9.61
2022-09-18T06:37:12.652Z,9.65
2022-09-18T06:38:12.635Z,9.68
2022-09-18T06:39:15.672Z,9.69
2022-09-18T06:40:15.727Z,9.72
2022-09-18T06:41:12.596Z,9.72
2022-09-18T06:42:12.585Z,9.76
2022-09-18T06:43:12.566Z,9.82
2022-09-18T06:44:12.556Z,9.89
2022-09-18T06:45:12.565Z,9.97
2022-09-18T06:46:12.627Z,10.07
2022-09-18T06:47:12.520Z,10.19
2022-09-18T06:48:12.506Z,10.30
2022-09-18T06:49:12.486Z,10.37
2022-09-18T06:50:12.480Z,10.44
2022-09-18T06:51:12.487Z,10.46
2022-09-18T06:52:12.447Z,10.48
2022-09-18T06:53:12.976Z,10.49
2022-09-18T06:54:12.417Z,10.46
2022-09-18T06:55:12.411Z,10.48
2022-09-18T06:56:12.391Z,10.49
2022-09-18T06:57:12.380Z,10.49
2022-09-18T06:58:12.368Z,10.56
2022-09-18T06:59:15.433Z,10.51
2022-09-18T07:00:15.357Z,10.54
2022-09-18T07:01:12.408Z,10.54
2022-09-18T07:02:16.043Z,10.56
2022-09-18T07:03:13.291Z,10.56
2022-09-18T07:04:12.281Z,10.54
2022-09-18T07:05:12.324Z,10.53
2022-09-18T07:06:12.258Z,10.49
2022-09-18T07:07:12.241Z,10.46
2022-09-18T07:08:12.233Z,10.40
2022-09-18T07:09:12.212Z,10.31
2022-09-18T07:10:12.203Z,10.25
2022-09-18T07:11:12.211Z,10.20
2022-09-18T07:12:12.174Z,10.17
2022-09-18T07:13:12.163Z,10.15
2022-09-18T07:14:12.151Z,10.12
2022-09-18T07:15:12.134Z,10.10
2022-09-18T07:16:12.302Z,10.09
2022-09-18T07:17:16.978Z,10.15
2022-09-18T07:18:13.094Z,10.19
2022-09-18T07:19:15.076Z,10.23
2022-09-18T07:20:15.076Z,10.34
2022-09-18T07:21:12.053Z,10.37
2022-09-18T07:22:12.107Z,10.41
2022-09-18T07:23:12.039Z,10.41
2022-09-18T07:24:12.017Z,10.46
2022-09-18T07:25:12.005Z,10.51
2022-09-18T07:26:11.986Z,10.57
2022-09-18T07:27:11.967Z,10.60
2022-09-18T07:28:12.007Z,10.61
2022-09-18T07:29:11.948Z,10.63
2022-09-18T07:30:11.928Z,10.71
2022-09-18T07:31:12.018Z,10.71
2022-09-18T07:32:11.906Z,10.71
2022-09-18T07:33:11.898Z,10.74
2022-09-18T07:34:11.929Z,10.76
2022-09-18T07:35:11.858Z,10.79
2022-09-18T07:36:11.860Z,10.82
2022-09-18T07:37:11.831Z,10.84
2022-09-18T07:38:11.822Z,10.87
2022-09-18T07:39:14.829Z,10.90
2022-09-18T07:40:14.876Z,11.00
2022-09-18T07:41:11.801Z,11.07
2022-09-18T07:42:11.772Z,11.19
2022-09-18T07:43:11.754Z,11.30
2022-09-18T07:44:11.745Z,11.43
2022-09-18T07:45:11.756Z,11.52
2022-09-18T07:46:11.742Z,11.57
2022-09-18T07:47:11.692Z,11.62
2022-09-18T07:48:11.684Z,11.63
2022-09-18T07:49:11.671Z,11.63
2022-09-18T07:50:11.693Z,11.51
2022-09-18T07:51:11.643Z,11.44
2022-09-18T07:52:11.634Z,11.33
2022-09-18T07:53:11.645Z,11.27
2022-09-18T07:54:11.604Z,11.35
2022-09-18T07:55:11.587Z,11.40
2022-09-18T07:56:11.579Z,11.54
2022-09-18T07:57:11.580Z,11.60
2022-09-18T07:58:11.606Z,11.54
2022-09-18T07:59:14.541Z,11.54
2022-09-18T08:00:14.537Z,11.55
2022-09-18T08:01:11.532Z,11.52
2022-09-18T08:02:11.667Z,11.41
2022-09-18T08:03:11.562Z,11.37
2022-09-18T08:04:11.526Z,11.35
2022-09-18T08:05:11.474Z,11.35
2022-09-18T08:06:11.450Z,11.33
2022-09-18T08:07:11.436Z,11.27
2022-09-18T08:08:11.428Z,11.27
2022-09-18T08:09:11.411Z,11.23
2022-09-18T08:10:11.431Z,11.22
2022-09-18T08:11:11.379Z,11.19
2022-09-18T08:12:11.370Z,11.18
2022-09-18T08:13:11.356Z,11.26
2022-09-18T08:14:11.358Z,11.26
2022-09-18T08:15:11.350Z,11.26
2022-09-18T08:16:11.346Z,11.26
2022-09-18T08:17:11.324Z,11.30
2022-09-18T08:18:11.295Z,11.35
2022-09-18T08:19:14.272Z,11.33
2022-09-18T08:20:14.304Z,11.40
2022-09-18T08:21:11.253Z,11.45
2022-09-18T08:22:11.277Z,11.51
2022-09-18T08:23:11.225Z,11.51
2022-09-18T08:24:11.215Z,11.55
2022-09-18T08:25:11.355Z,11.60
2022-09-18T08:26:11.198Z,11.66
2022-09-18T08:27:11.164Z,11.75
2022-09-18T08:28:11.154Z,11.77
2022-09-18T08:29:11.135Z,11.81
2022-09-18T08:30:11.139Z,11.86
2022-09-18T08:31:11.220Z,11.95
2022-09-18T08:32:11.096Z,12.09
2022-09-18T08:33:11.088Z,12.22
2022-09-18T08:34:11.068Z,12.29
2022-09-18T08:35:11.242Z,12.36
2022-09-18T08:36:11.038Z,12.31
2022-09-18T08:37:11.037Z,12.36
2022-09-18T08:38:11.010Z,12.42
2022-09-18T08:39:13.998Z,12.45
2022-09-18T08:40:14.082Z,12.47
2022-09-18T08:41:10.970Z,12.40
2022-09-18T08:42:11.010Z,12.42
2022-09-18T08:43:10.942Z,12.47
2022-09-18T08:44:10.929Z,12.54
2022-09-18T08:45:10.950Z,12.61
2022-09-18T08:46:10.958Z,12.55
2022-09-18T08:47:10.914Z,12.54
2022-09-18T08:48:10.870Z,12.54
2022-09-18T08:49:10.865Z,12.50
2022-09-18T08:50:10.845Z,12.43
2022-09-18T08:51:10.834Z,12.37
2022-09-18T08:52:10.926Z,12.31
2022-09-18T08:53:10.806Z,12.24
2022-09-18T08:54:10.812Z,12.12
2022-09-18T08:55:10.777Z,11.87
2022-09-18T08:56:10.763Z,11.72
2022-09-18T08:57:15.224Z,11.50
2022-09-18T08:58:10.746Z,11.33
2022-09-18T08:59:13.722Z,11.29
2022-09-18T09:00:13.704Z,11.18
2022-09-18T09:01:10.726Z,11.14
2022-09-18T09:02:10.767Z,11.07
2022-09-18T09:03:10.685Z,10.96
2022-09-18T09:04:10.645Z,10.94
2022-09-18T09:05:10.665Z,10.82
2022-09-18T09:06:10.616Z,10.76
2022-09-18T09:07:10.606Z,10.72
2022-09-18T09:08:10.664Z,10.63
2022-09-18T09:09:14.977Z,10.69
2022-09-18T09:10:11.568Z,10.76
2022-09-18T09:11:10.568Z,10.90
2022-09-18T09:12:10.587Z,11.00
2022-09-18T09:13:10.530Z,11.12
2022-09-18T09:14:10.596Z,11.25
2022-09-18T09:15:10.498Z,11.33
2022-09-18T09:16:10.536Z,11.44
2022-09-18T09:17:10.477Z,11.51
2022-09-18T09:18:10.465Z,11.62
2022-09-18T09:19:13.510Z,11.66
2022-09-18T09:20:13.443Z,11.75
2022-09-18T09:21:11.886Z,11.78
2022-09-18T09:22:10.411Z,11.83
2022-09-18T09:23:10.391Z,11.87
2022-09-18T09:24:10.372Z,11.90
2022-09-18T09:25:10.529Z,11.95
2022-09-18T09:26:10.342Z,12.04
2022-09-18T09:27:10.333Z,12.15
2022-09-18T09:28:13.342Z,12.24
2022-09-18T09:29:11.310Z,12.27
2022-09-18T09:30:10.293Z,12.29
2022-09-18T09:31:10.472Z,12.39
2022-09-18T09:32:10.316Z,12.42
2022-09-18T09:33:10.255Z,12.42
2022-09-18T09:34:10.234Z,12.50
2022-09-18T09:35:10.234Z,12.54
2022-09-18T09:36:10.206Z,12.67
2022-09-18T09:37:10.245Z,12.79
2022-09-18T09:38:10.203Z,12.94
2022-09-18T09:39:13.167Z,12.98
2022-09-18T09:40:13.215Z,13.15
2022-09-18T09:41:10.151Z,13.23
2022-09-18T09:42:10.128Z,13.19
2022-09-18T09:43:10.167Z,13.18
2022-09-18T09:44:10.100Z,13.15
2022-09-18T09:45:10.086Z,13.03
2022-09-18T09:46:10.106Z,12.91
2022-09-18T09:47:10.136Z,12.78
2022-09-18T09:48:10.039Z,12.70
2022-09-18T09:49:10.061Z,12.49
2022-09-18T09:50:10.025Z,12.42
2022-09-18T09:51:10.023Z,12.28
2022-09-18T09:52:09.990Z,12.00
2022-09-18T09:53:10.001Z,11.90
2022-09-18T09:54:09.991Z,11.75
2022-09-18T09:55:09.969Z,11.65
2022-09-18T09:56:09.939Z,11.54
2022-09-18T09:57:09.926Z,11.44
2022-09-18T09:58:09.905Z,11.33
2022-09-18T09:59:12.925Z,11.33
2022-09-18T10:00:12.883Z,11.32
2022-09-18T10:01:09.991Z,11.19
2022-09-18T10:02:09.881Z,11.17
2022-09-18T10:03:09.847Z,11.17
2022-09-18T10:04:09.844Z,11.08
2022-09-18T10:05:09.805Z,10.96
2022-09-18T10:06:09.810Z,10.90
2022-09-18T10:07:09.837Z,10.87
2022-09-18T10:08:09.765Z,10.89
2022-09-18T10:09:09.757Z,10.79
2022-09-18T10:10:09.735Z,10.78
2022-09-18T10:11:09.737Z,10.71
2022-09-18T10:12:09.715Z,10.69
2022-09-18T10:13:09.727Z,10.68
2022-09-18T10:14:09.746Z,10.72
2022-09-18T10:15:09.676Z,10.84
2022-09-18T10:16:09.712Z,10.94
2022-09-18T10:17:09.657Z,11.02
2022-09-18T10:18:13.339Z,11.14
2022-09-18T10:19:13.658Z,11.27
2022-09-18T10:20:12.641Z,11.45
2022-09-18T10:21:09.599Z,11.51
2022-09-18T10:22:09.597Z,11.66
2022-09-18T10:23:09.579Z,11.81
2022-09-18T10:24:09.742Z,11.94
2022-09-18T10:25:09.548Z,12.10
2022-09-18T10:26:09.530Z,12.24
2022-09-18T10:27:09.527Z,12.39
2022-09-18T10:28:09.501Z,12.46
2022-09-18T10:29:09.491Z,12.53
2022-09-18T10:30:09.547Z,12.54
2022-09-18T10:31:09.518Z,12.61
2022-09-18T10:32:09.453Z,12.70
2022-09-18T10:33:09.447Z,12.86
2022-09-18T10:34:09.422Z,13.03
2022-09-18T10:35:09.406Z,13.18
2022-09-18T10:36:09.435Z,13.27
2022-09-18T10:37:09.393Z,13.23
2022-09-18T10:38:09.364Z,13.11
2022-09-18T10:39:12.356Z,12.82
2022-09-18T10:40:12.395Z,12.80
2022-09-18T10:41:09.336Z,12.75
2022-09-18T10:42:09.466Z,12.75
2022-09-18T10:43:09.297Z,12.65
2022-09-18T10:44:09.301Z,12.62
2022-09-18T10:45:09.267Z,12.53
2022-09-18T10:46:09.321Z,12.53
2022-09-18T10:47:09.252Z,12.57
2022-09-18T10:48:09.277Z,12.67
2022-09-18T10:49:09.217Z,12.65
2022-09-18T10:50:09.215Z,12.64
2022-09-18T10:51:09.190Z,12.61
2022-09-18T10:52:09.170Z,12.67
2022-09-18T10:53:09.162Z,12.80
2022-09-18T10:54:09.178Z,12.87
2022-09-18T10:55:09.137Z,13.04
2022-09-18T10:56:09.121Z,13.05
2022-09-18T10:57:09.113Z,13.20
2022-09-18T10:58:09.090Z,13.31
2022-09-18T10:59:12.132Z,13.37
2022-09-18T11:00:12.127Z,13.49
2022-09-18T11:01:09.104Z,13.46
2022-09-18T11:02:09.068Z,13.60
2022-09-18T11:03:09.023Z,13.72
2022-09-18T11:04:09.014Z,13.75
2022-09-18T11:05:09.181Z,13.74
2022-09-18T11:06:08.983Z,13.65
2022-09-18T11:07:08.975Z,13.63
2022-09-18T11:08:08.974Z,13.62
2022-09-18T11:09:08.948Z,13.60
2022-09-18T11:10:08.937Z,13.47
2022-09-18T11:11:09.002Z,13.37
2022-09-18T11:12:08.908Z,13.38
2022-09-18T11:13:08.887Z,13.33
2022-09-18T11:14:08.875Z,13.47
2022-09-18T11:15:08.866Z,13.56
2022-09-18T11:16:08.907Z,13.77
2022-09-18T11:17:09.003Z,13.72
2022-09-18T11:18:08.819Z,13.67
2022-09-18T11:19:14.509Z,13.65
2022-09-18T11:20:11.808Z,13.53
2022-09-18T11:21:08.790Z,13.44
2022-09-18T11:22:08.772Z,13.35
2022-09-18T11:23:08.789Z,13.22
2022-09-18T11:24:08.738Z,13.13
2022-09-18T11:25:08.779Z,12.95
2022-09-18T11:26:08.720Z,12.61
2022-09-18T11:27:08.700Z,12.45
2022-09-18T11:28:08.681Z,12.21
2022-09-18T11:29:08.675Z,12.10
2022-09-18T11:30:08.660Z,12.18
2022-09-18T11:31:08.854Z,12.40
2022-09-18T11:32:08.632Z,12.61
2022-09-18T11:33:08.623Z,12.86
2022-09-18T11:34:08.603Z,13.05
2022-09-18T11:35:08.593Z,13.35
2022-09-18T11:36:08.581Z,13.52
2022-09-18T11:37:08.593Z,13.56
2022-09-18T11:38:08.553Z,13.59
2022-09-18T11:39:11.535Z,13.62
2022-09-18T11:40:11.565Z,13.77
2022-09-18T11:41:08.675Z,13.96
2022-09-18T11:42:08.497Z,14.05
2022-09-18T11:43:08.487Z,13.92
2022-09-18T11:44:08.466Z,14.04
2022-09-18T11:45:08.459Z,14.28
2022-09-18T11:46:08.448Z,14.60
2022-09-18T11:47:08.531Z,14.77
2022-09-18T11:48:08.417Z,14.82
2022-09-18T11:49:08.409Z,15.02
2022-09-18T11:50:08.452Z,15.04
2022-09-18T11:51:08.378Z,15.10
2022-09-18T11:52:08.359Z,15.18
2022-09-18T11:53:08.379Z,15.10
2022-09-18T11:54:08.340Z,15.22
2022-09-18T11:55:08.320Z,15.29
2022-09-18T11:56:08.309Z,15.42
2022-09-18T11:57:08.291Z,15.43
2022-09-18T11:58:08.301Z,15.37
2022-09-18T11:59:11.269Z,15.40
2022-09-18T12:00:11.265Z,15.25
2022-09-18T12:01:08.242Z,15.09
2022-09-18T12:02:08.365Z,15.27
2022-09-18T12:03:08.323Z,15.39
2022-09-18T12:04:08.195Z,15.49
2022-09-18T12:05:08.183Z,15.65
2022-09-18T12:06:08.167Z,15.82
2022-09-18T12:07:08.155Z,15.79
2022-09-18T12:08:06.957Z,15.65
2022-09-18T12:09:06.768Z,15.43
2022-09-18T12:10:06.757Z,15.27
2022-09-18T12:11:06.747Z,14.94
2022-09-18T12:12:06.730Z,14.44
2022-09-18T12:13:06.717Z,14.04
2022-09-18T12:14:06.717Z,13.70
2022-09-18T12:15:06.685Z,13.53
2022-09-18T12:16:06.702Z,13.35
2022-09-18T12:17:06.662Z,13.38
2022-09-18T12:18:06.634Z,13.50
2022-09-18T12:19:09.654Z,13.50
2022-09-18T12:20:09.627Z,13.52
2022-09-18T12:21:06.600Z,13.62
2022-09-18T12:22:06.581Z,13.75
2022-09-18T12:23:06.574Z,13.93
2022-09-18T12:24:06.585Z,14.11
2022-09-18T12:25:06.540Z,14.23
2022-09-18T12:26:06.520Z,14.30
2022-09-18T12:27:06.560Z,14.37
2022-09-18T12:28:06.489Z,14.40
2022-09-18T12:29:06.478Z,14.48
2022-09-18T12:30:06.469Z,14.68
2022-09-18T12:31:06.495Z,14.82
2022-09-18T12:32:06.437Z,14.82
2022-09-18T12:33:06.597Z,14.99
2022-09-18T12:34:06.407Z,15.10
2022-09-18T12:35:06.409Z,15.15
2022-09-18T12:36:06.381Z,15.15
2022-09-18T12:37:06.391Z,15.14
2022-09-18T12:38:06.355Z,15.25
2022-09-18T12:39:12.903Z,15.24
2022-09-18T12:40:10.042Z,15.35
2022-09-18T12:41:06.987Z,15.31
2022-09-18T12:42:06.967Z,15.36
2022-09-18T12:43:06.965Z,15.37
2022-09-18T12:44:06.997Z,15.40
2022-09-18T12:45:06.924Z,15.52
2022-09-18T12:46:06.932Z,15.57
2022-09-18T12:47:06.912Z,15.54
2022-09-18T12:48:06.874Z,15.55
2022-09-18T12:49:06.865Z,15.40
2022-09-18T12:50:06.912Z,15.39
2022-09-18T12:51:06.832Z,15.22
2022-09-18T12:52:06.820Z,15.09
2022-09-18T12:53:09.982Z,14.82
2022-09-18T12:54:06.905Z,14.59
2022-09-18T12:55:06.771Z,14.50
2022-09-18T12:56:06.790Z,14.14
2022-09-18T12:57:06.739Z,14.00
2022-09-18T12:58:06.759Z,13.99
2022-09-18T12:59:09.723Z,13.75
2022-09-18T13:00:09.718Z,13.54
2022-09-18T13:01:06.817Z,13.49
2022-09-18T13:02:06.675Z,13.41
2022-09-18T13:03:06.709Z,13.38
2022-09-18T13:04:06.647Z,13.38
2022-09-18T13:05:06.645Z,13.28
2022-09-18T13:06:06.614Z,13.05
2022-09-18T13:07:06.626Z,12.93
2022-09-18T13:08:06.584Z,12.83
2022-09-18T13:09:06.583Z,12.79
2022-09-18T13:10:06.563Z,12.94
2022-09-18T13:11:06.713Z,12.91
2022-09-18T13:12:06.530Z,12.76
2022-09-18T13:13:06.531Z,12.70
2022-09-18T13:14:06.512Z,12.50
2022-09-18T13:15:06.487Z,12.36
2022-09-18T13:16:06.526Z,12.18
2022-09-18T13:17:07.242Z,12.09
2022-09-18T13:18:07.172Z,11.94
2022-09-18T13:19:10.212Z,11.95
2022-09-18T13:20:10.162Z,12.07
2022-09-18T13:21:07.131Z,12.04
2022-09-18T13:22:07.119Z,12.03
2022-09-18T13:23:07.129Z,12.03
2022-09-18T13:24:07.089Z,12.06
2022-09-18T13:25:07.068Z,12.17
2022-09-18T13:26:07.067Z,12.40
2022-09-18T13:27:07.055Z,12.65
2022-09-18T13:28:07.227Z,12.94
2022-09-18T13:29:07.020Z,13.19
2022-09-18T13:30:07.018Z,13.46
2022-09-18T13:31:07.019Z,13.63
2022-09-18T13:32:06.976Z,13.72
2022-09-18T13:33:06.963Z,13.96
2022-09-18T13:34:06.974Z,14.15
2022-09-18T13:35:06.936Z,14.15
2022-09-18T13:36:06.922Z,14.25